createdAt,value
2023-02-22T00:02:11.250Z,27.13
2023-02-22T00:04:39.872Z,29.17
2023-02-22T00:07:07.957Z,23.30
2023-02-22T00:09:35.055Z,24.27
2023-02-22T00:12:02.419Z,20.53
2023-02-22T00:14:29.545Z,23.73
2023-02-22T00:16:59.773Z,27.50
2023-02-22T00:19:28.261Z,23.67
2023-02-22T00:21:55.557Z,23.37
2023-02-22T00:24:25.650Z,21.90
2023-02-22T00:26:55.831Z,26.47
2023-02-22T00:29:26.366Z,24.97
2023-02-22T00:31:54.244Z,30.03
2023-02-22T00:34:23.576Z,25.03
2023-02-22T00:36:50.802Z,24.03
2023-02-22T00:39:18.434Z,31.67
2023-02-22T00:41:45.624Z,25.20
2023-02-22T00:44:13.045Z,33.40
2023-02-22T00:46:40.263Z,31.80
2023-02-22T00:49:07.632Z,24.47
2023-02-22T00:51:34.919Z,22.27
2023-02-22T00:54:02.243Z,26.70
2023-02-22T00:56:29.334Z,27.50
2023-02-22T00:58:56.448Z,26.63
2023-02-22T01:01:24.439Z,25.20
2023-02-22T01:03:51.805Z,20.23
2023-02-22T01:06:19.653Z,21.97
2023-02-22T01:08:48.073Z,26.43
2023-02-22T01:11:17.091Z,31.33
2023-02-22T01:13:45.528Z,32.60
2023-02-22T01:16:12.995Z,27.27
2023-02-22T01:18:40.390Z,26.63
2023-02-22T01:21:08.735Z,30.13
2023-02-22T01:23:35.859Z,24.73
2023-02-22T01:26:06.226Z,26.60
2023-02-22T01:28:34.443Z,27.10
2023-02-22T01:31:03.433Z,30.60
2023-02-22T01:33:31.471Z,23.63
2023-02-22T01:35:59.843Z,25.37
2023-02-22T01:38:27.875Z,28.87
2023-02-22T01:40:55.207Z,28.60
2023-02-22T01:43:29.947Z,29.97
2023-02-22T01:46:02.118Z,29.57
2023-02-22T01:48:41.752Z,28.70
2023-02-22T01:51:28.584Z,28.77
2023-02-22T01:54:00.389Z,29.37
2023-02-22T01:56:29.889Z,30.77
2023-02-22T01:59:02.335Z,32.13
2023-02-22T02:01:30.533Z,28.70
2023-02-22T02:04:00.384Z,31.77
2023-02-22T02:06:31.490Z,30.90
2023-02-22T02:09:44.929Z,31.60
2023-02-22T02:12:14.336Z,29.30
2023-02-22T02:14:44.088Z,28.27
2023-02-22T02:17:15.506Z,25.80
2023-02-22T02:20:07.321Z,31.23
2023-02-22T02:22:46.513Z,28.13
2023-02-22T02:25:35.124Z,24.13
2023-02-22T02:28:40.912Z,27.83
2023-02-22T02:31:39.486Z,23.47
2023-02-22T02:34:29.763Z,23.23
2023-02-22T02:37:15.572Z,30.37
2023-02-22T02:39:56.838Z,35.37
2023-02-22T02:42:33.716Z,30.10
2023-02-22T02:45:12.623Z,33.70
2023-02-22T02:47:48.233Z,30.37
2023-02-22T02:50:27.842Z,25.70
2023-02-22T02:52:58.961Z,25.50
2023-02-22T02:55:30.723Z,30.27
2023-02-22T02:57:57.809Z,24.53
2023-02-22T03:00:29.957Z,25.87
2023-02-22T03:03:24.111Z,26.40
2023-02-22T03:06:09.462Z,28.57
2023-02-22T03:08:56.542Z,27.63
2023-02-22T03:14:16.185Z,27.63
2023-02-22T03:17:04.968Z,25.60
2023-02-22T03:19:39.792Z,24.93
2023-02-22T03:22:09.210Z,27.47
2023-02-22T03:24:54.889Z,29.93
2023-02-22T03:27:29.144Z,28.43
2023-02-22T03:30:05.093Z,25.20
2023-02-22T03:32:38.578Z,28.03
2023-02-22T03:35:14.120Z,27.93
2023-02-22T03:37:47.214Z,29.30
2023-02-22T03:40:26.264Z,27.73
2023-02-22T03:43:06.914Z,28.70
2023-02-22T03:45:40.889Z,27.17
2023-02-22T03:48:27.787Z,29.40
2023-02-22T03:50:55.182Z,28.83
2023-02-22T03:53:23.420Z,23.90
2023-02-22T03:55:55.790Z,34.53
2023-02-22T03:58:28.091Z,26.23
2023-02-22T04:00:55.928Z,27.43
2023-02-22T04:03:24.041Z,28.40
2023-02-22T04:05:52.874Z,30.53
2023-02-22T04:08:21.438Z,26.90
2023-02-22T04:10:48.788Z,30.10
2023-02-22T04:13:18.709Z,24.03
2023-02-22T04:15:48.544Z,25.50
2023-02-22T04:18:16.510Z,24.53
2023-02-22T04:20:46.269Z,23.63
2023-02-22T04:23:21.544Z,25.03
2023-02-22T04:25:49.382Z,32.03
2023-02-22T04:28:19.783Z,25.07
2023-02-22T04:30:52.807Z,28.67
2023-02-22T04:33:20.439Z,24.10
2023-02-22T04:35:47.797Z,28.93
2023-02-22T04:38:15.531Z,26.43
2023-02-22T04:40:42.662Z,25.53
2023-02-22T04:43:09.956Z,26.17
2023-02-22T04:45:37.285Z,25.53
2023-02-22T04:48:06.238Z,23.67
2023-02-22T04:50:33.521Z,22.97
2023-02-22T04:53:00.664Z,22.27
2023-02-22T04:55:30.548Z,26.67
2023-02-22T04:57:58.060Z,29.70
2023-02-22T05:00:25.536Z,27.37
2023-02-22T05:02:57.335Z,24.07
2023-02-22T05:05:24.640Z,28.20
2023-02-22T05:07:52.014Z,20.77
2023-02-22T05:10:20.059Z,28.97
2023-02-22T05:12:47.341Z,25.00
2023-02-22T05:15:20.445Z,24.30
2023-02-22T05:17:48.301Z,25.40
2023-02-22T05:20:28.955Z,22.63
2023-02-22T05:23:00.591Z,21.50
2023-02-22T05:25:28.492Z,22.93
2023-02-22T05:27:58.111Z,28.10
2023-02-22T05:30:30.611Z,29.07
2023-02-22T05:32:59.554Z,21.37
2023-02-22T05:35:27.819Z,24.10
2023-02-22T05:37:55.555Z,28.83
2023-02-22T05:40:25.527Z,26.97
2023-02-22T05:42:53.800Z,25.80
2023-02-22T05:45:23.169Z,25.97
2023-02-22T05:47:50.898Z,26.63
2023-02-22T05:50:19.915Z,21.77
2023-02-22T05:52:49.033Z,25.50
2023-02-22T05:55:19.006Z,30.53
2023-02-22T05:57:47.182Z,27.20
2023-02-22T06:00:23.406Z,23.40
2023-02-22T06:03:00.101Z,22.05
2023-02-22T06:05:30.477Z,24.13
2023-02-22T06:07:58.979Z,24.53
2023-02-22T06:10:27.294Z,25.70
2023-02-22T06:12:55.124Z,22.63
2023-02-22T06:15:24.132Z,24.93
2023-02-22T06:17:51.840Z,23.37
2023-02-22T06:20:22.836Z,27.07
2023-02-22T06:22:54.211Z,31.10
2023-02-22T06:25:24.520Z,24.30
2023-02-22T06:27:51.726Z,24.93
2023-02-22T06:30:21.538Z,22.07
2023-02-22T06:32:48.737Z,26.43
2023-02-22T06:35:16.897Z,24.43
2023-02-22T06:37:44.026Z,21.87
2023-02-22T06:40:11.637Z,26.50
2023-02-22T06:42:39.511Z,22.20
2023-02-22T06:45:07.622Z,23.80
2023-02-22T06:47:39.787Z,21.30
2023-02-22T06:50:08.089Z,20.23
2023-02-22T06:52:35.247Z,24.80
2023-02-22T06:55:02.383Z,22.17
2023-02-22T06:57:30.454Z,24.73
2023-02-22T06:59:57.585Z,23.73
2023-02-22T07:02:24.763Z,22.43
2023-02-22T07:04:51.908Z,23.00
2023-02-22T07:07:19.008Z,20.47
2023-02-22T07:09:48.034Z,22.43
2023-02-22T07:12:15.165Z,29.67
2023-02-22T07:14:42.901Z,23.90
2023-02-22T07:17:10.133Z,21.20
2023-02-22T07:19:37.184Z,23.37
2023-02-22T07:22:04.326Z,26.00
2023-02-22T07:24:31.492Z,22.67
2023-02-22T07:27:02.053Z,20.63
2023-02-22T07:29:29.276Z,19.67
2023-02-22T07:31:57.852Z,21.97
2023-02-22T07:34:25.017Z,22.57
2023-02-22T07:36:52.155Z,21.27
2023-02-22T07:39:19.381Z,23.77
2023-02-22T07:41:46.684Z,23.67
2023-02-22T07:44:24.024Z,25.73
2023-02-22T07:46:51.098Z,22.57
2023-02-22T07:49:18.661Z,19.27
2023-02-22T07:51:45.956Z,20.07
2023-02-22T07:54:13.154Z,18.30
2023-02-22T07:56:49.556Z,21.83
2023-02-22T07:59:16.913Z,18.30
2023-02-22T08:01:44.451Z,22.03
2023-02-22T08:04:11.633Z,23.73
2023-02-22T08:06:38.898Z,21.90
2023-02-22T08:09:06.148Z,24.97
2023-02-22T08:11:33.455Z,20.83
2023-02-22T08:14:00.656Z,17.37
2023-02-22T08:16:28.018Z,21.57
2023-02-22T08:18:55.226Z,18.30
2023-02-22T08:21:22.431Z,19.30
2023-02-22T08:23:54.555Z,18.83
2023-02-22T08:26:21.759Z,21.13
2023-02-22T08:28:49.098Z,17.80
2023-02-22T08:31:16.555Z,20.70
2023-02-22T08:33:47.132Z,20.10
2023-02-22T08:36:14.232Z,18.40
2023-02-22T08:38:41.591Z,23.20
2023-02-22T08:41:11.306Z,19.48
2023-02-22T08:43:38.506Z,17.83
2023-02-22T08:46:05.660Z,20.55
2023-02-22T08:48:32.881Z,19.20
2023-02-22T08:51:00.101Z,21.67
2023-02-22T08:53:27.365Z,20.85
2023-02-22T08:55:56.877Z,21.10
2023-02-22T08:58:23.964Z,19.85
2023-02-22T09:00:51.174Z,16.40
2023-02-22T09:03:18.504Z,18.17
2023-02-22T09:05:45.789Z,18.63
2023-02-22T09:08:13.106Z,20.98
2023-02-22T09:10:40.895Z,19.45
2023-02-22T09:13:08.142Z,21.83
2023-02-22T09:15:36.550Z,19.83
2023-02-22T09:18:05.817Z,20.60
2023-02-22T09:20:32.902Z,19.02
2023-02-22T09:23:03.614Z,21.17
2023-02-22T09:25:31.097Z,20.10
2023-02-22T09:27:58.530Z,20.98
2023-02-22T09:30:34.396Z,22.15
2023-02-22T09:33:04.449Z,19.77
2023-02-22T09:35:31.865Z,17.23
2023-02-22T09:38:00.542Z,23.52
2023-02-22T09:40:31.040Z,22.15
2023-02-22T09:43:27.838Z,17.77
2023-02-22T09:46:13.718Z,23.98
2023-02-22T09:49:02.508Z,18.30
2023-02-22T09:51:38.052Z,18.05
2023-02-22T09:54:14.784Z,18.27
2023-02-22T09:56:44.342Z,21.73
2023-02-22T09:59:15.783Z,19.20
2023-02-22T10:01:50.317Z,21.95
2023-02-22T10:04:38.872Z,21.45
2023-02-22T10:07:18.496Z,19.05
2023-02-22T10:09:48.594Z,17.90
2023-02-22T10:12:30.347Z,16.77
2023-02-22T10:15:42.609Z,15.98
2023-02-22T10:18:31.215Z,18.20
2023-02-22T10:21:14.563Z,17.15
2023-02-22T10:24:17.258Z,17.30
2023-02-22T10:26:47.081Z,17.70
2023-02-22T10:29:29.830Z,15.73
2023-02-22T10:32:00.766Z,15.57
2023-02-22T10:34:36.643Z,18.50
2023-02-22T10:37:34.825Z,18.53
2023-02-22T10:40:23.143Z,21.77
2023-02-22T10:42:50.909Z,20.30
2023-02-22T10:45:30.073Z,16.70
2023-02-22T10:47:59.877Z,15.47
2023-02-22T10:50:31.257Z,16.43
2023-02-22T10:52:58.400Z,17.60
2023-02-22T10:55:25.860Z,18.57
2023-02-22T10:58:02.367Z,18.80
2023-02-22T11:00:33.301Z,18.40
2023-02-22T11:03:03.009Z,17.17
2023-02-22T11:05:37.021Z,16.87
2023-02-22T11:08:16.250Z,16.90
2023-02-22T11:10:43.644Z,15.73
2023-02-22T11:13:33.702Z,15.23
2023-02-22T11:16:17.568Z,14.23
2023-02-22T11:18:44.793Z,19.43
2023-02-22T11:21:14.163Z,13.50
2023-02-22T11:23:45.077Z,16.33
2023-02-22T11:26:17.693Z,14.27
2023-02-22T11:28:49.824Z,16.53
2023-02-22T11:31:21.129Z,17.13
2023-02-22T11:34:00.063Z,15.27
2023-02-22T11:36:40.623Z,14.90
2023-02-22T11:39:27.228Z,14.70
2023-02-22T11:41:56.753Z,19.10
2023-02-22T11:44:28.876Z,18.50
2023-02-22T11:47:01.699Z,17.73
2023-02-22T11:49:38.599Z,15.03
2023-02-22T11:55:43.148Z,16.65
2023-02-22T11:58:45.876Z,15.57
2023-02-22T12:01:51.626Z,15.43
2023-02-22T12:04:55.840Z,19.43
2023-02-22T12:07:56.851Z,15.60
2023-02-22T12:10:55.620Z,16.30
2023-02-22T12:13:37.780Z,15.60
2023-02-22T12:16:27.193Z,13.40
2023-02-22T12:19:10.473Z,17.10
2023-02-22T12:21:42.944Z,14.30
2023-02-22T12:24:16.629Z,14.90
2023-02-22T12:26:59.019Z,17.27
2023-02-22T12:29:47.448Z,16.73
2023-02-22T12:32:33.512Z,18.50
2023-02-22T12:35:26.765Z,16.07
2023-02-22T12:38:04.992Z,18.70
2023-02-22T12:41:01.831Z,15.17
2023-02-22T12:43:36.664Z,12.87
2023-02-22T12:46:13.874Z,13.97
2023-02-22T12:48:48.112Z,12.10
2023-02-22T12:51:31.928Z,17.97
2023-02-22T12:54:02.049Z,23.17
2023-02-22T12:56:36.601Z,15.73
2023-02-22T12:59:15.478Z,17.87
2023-02-22T13:01:46.688Z,17.70
2023-02-22T13:04:20.924Z,13.73
2023-02-22T13:07:06.075Z,16.50
2023-02-22T13:10:18.983Z,16.27
2023-02-22T13:13:15.675Z,13.63
2023-02-22T13:15:57.831Z,14.03
2023-02-22T13:18:48.903Z,15.83
2023-02-22T13:21:34.450Z,17.17
2023-02-22T13:24:16.127Z,12.93
2023-02-22T13:26:52.308Z,12.43
2023-02-22T13:29:38.022Z,13.98
2023-02-22T13:32:20.949Z,15.00
2023-02-22T13:35:20.391Z,15.70
2023-02-22T13:37:56.497Z,12.33
2023-02-22T13:40:50.078Z,12.73
2023-02-22T13:43:43.777Z,12.23
2023-02-22T13:46:44.990Z,13.53
2023-02-22T13:49:39.849Z,13.73
2023-02-22T13:52:12.517Z,14.90
2023-02-22T13:54:48.739Z,14.07
2023-02-22T13:57:37.059Z,10.70
2023-02-22T14:00:16.637Z,12.23
2023-02-22T14:03:27.086Z,13.30
2023-02-22T14:05:57.376Z,13.70
2023-02-22T14:08:31.748Z,12.97
2023-02-22T14:11:00.994Z,13.83
2023-02-22T14:13:30.790Z,12.87
2023-02-22T14:16:00.995Z,10.83
2023-02-22T14:18:43.687Z,14.50
2023-02-22T14:21:21.140Z,16.37
2023-02-22T14:23:53.425Z,14.90
2023-02-22T14:26:31.422Z,14.40
2023-02-22T14:29:09.275Z,13.27
2023-02-22T14:31:51.093Z,13.13
2023-02-22T14:34:20.084Z,13.47
2023-02-22T14:37:17.471Z,12.73
2023-02-22T14:39:51.220Z,17.30
2023-02-22T14:42:21.599Z,12.93
2023-02-22T14:44:49.040Z,14.93
2023-02-22T14:47:32.268Z,11.40
2023-02-22T14:50:13.132Z,11.70
2023-02-22T14:52:42.855Z,10.80
2023-02-22T14:55:23.987Z,13.50
2023-02-22T14:58:08.894Z,13.53
2023-02-22T15:00:47.578Z,11.63
2023-02-22T15:03:37.474Z,13.87
2023-02-22T15:06:16.313Z,15.23
2023-02-22T15:08:50.900Z,13.47
2023-02-22T15:11:27.974Z,12.43
2023-02-22T15:13:55.232Z,13.00
2023-02-22T15:16:23.959Z,13.00
2023-02-22T15:18:55.210Z,12.40
2023-02-22T15:21:27.149Z,11.27
2023-02-22T15:24:03.816Z,13.67
2023-02-22T15:26:51.949Z,15.57
2023-02-22T15:29:44.689Z,11.93
2023-02-22T15:32:30.480Z,11.70
2023-02-22T15:35:29.282Z,14.93
2023-02-22T15:38:16.594Z,12.27
2023-02-22T15:43:24.638Z,13.60
2023-02-22T15:45:52.513Z,12.33
2023-02-22T15:48:20.266Z,12.97
2023-02-22T15:51:10.834Z,11.57
2023-02-22T15:53:49.841Z,12.97
2023-02-22T15:56:27.082Z,12.50
2023-02-22T15:59:00.796Z,13.60
2023-02-22T16:01:57.059Z,13.30
2023-02-22T16:04:31.672Z,11.73
2023-02-22T16:07:17.334Z,13.03
2023-02-22T16:09:51.987Z,11.83
2023-02-22T16:12:22.113Z,14.77
2023-02-22T16:14:50.410Z,15.43
2023-02-22T16:17:35.886Z,13.93
2023-02-22T16:20:25.092Z,11.43
2023-02-22T16:22:52.370Z,12.10
2023-02-22T16:25:19.445Z,13.30
2023-02-22T16:28:34.197Z,14.17
2023-02-22T16:31:02.088Z,12.43
2023-02-22T16:33:34.149Z,13.27
2023-02-22T16:36:06.534Z,12.37
2023-02-22T16:38:38.547Z,14.13
2023-02-22T16:41:07.717Z,12.57
2023-02-22T16:43:36.504Z,12.03
2023-02-22T16:46:07.087Z,13.63
2023-02-22T16:48:38.480Z,14.63
2023-02-22T16:51:27.091Z,14.07
2023-02-22T16:53:56.088Z,13.57
2023-02-22T16:56:30.895Z,14.43
2023-02-22T16:59:04.200Z,14.57
2023-02-22T17:01:35.308Z,13.03
2023-02-22T17:04:03.025Z,14.07
2023-02-22T17:06:30.250Z,11.57
2023-02-22T17:08:57.352Z,14.83
2023-02-22T17:11:24.644Z,11.67
2023-02-22T17:13:52.084Z,15.10
2023-02-22T17:16:19.560Z,17.13
2023-02-22T17:18:47.023Z,12.00
2023-02-22T17:21:14.936Z,14.30
2023-02-22T17:23:44.507Z,14.53
2023-02-22T17:26:16.302Z,13.60
2023-02-22T17:28:44.355Z,16.77
2023-02-22T17:31:21.168Z,13.00
2023-02-22T17:36:16.301Z,12.97
2023-02-22T17:38:44.004Z,15.77
2023-02-22T17:41:11.293Z,11.67
2023-02-22T17:43:38.496Z,13.20
2023-02-22T17:46:08.196Z,13.40
2023-02-22T17:48:35.682Z,12.97
2023-02-22T17:51:07.883Z,12.73
2023-02-22T17:53:35.748Z,13.47
2023-02-22T17:56:16.863Z,10.20
2023-02-22T17:58:50.482Z,11.00
2023-02-22T18:01:25.145Z,11.80
2023-02-22T18:03:53.539Z,11.93
2023-02-22T18:06:25.168Z,11.00
2023-02-22T18:08:55.823Z,10.47
2023-02-22T18:11:26.568Z,11.53
2023-02-22T18:13:58.080Z,13.13
2023-02-22T18:16:26.280Z,12.00
2023-02-22T18:18:54.729Z,15.77
2023-02-22T18:21:22.707Z,13.47
2023-02-22T18:23:49.774Z,14.73
2023-02-22T18:26:18.719Z,14.50
2023-02-22T18:28:48.826Z,11.67
2023-02-22T18:31:20.756Z,14.40
2023-02-22T18:33:51.197Z,12.07
2023-02-22T18:36:23.702Z,11.03
2023-02-22T18:38:55.166Z,10.57
2023-02-22T18:41:27.197Z,14.53
2023-02-22T18:43:57.759Z,10.70
2023-02-22T18:46:25.743Z,13.20
2023-02-22T18:48:54.902Z,13.47
2023-02-22T18:51:23.313Z,15.47
2023-02-22T18:53:55.121Z,12.20
2023-02-22T18:56:22.834Z,12.53
2023-02-22T18:58:54.788Z,13.13
2023-02-22T19:01:23.236Z,13.07
2023-02-22T19:03:52.028Z,12.63
2023-02-22T19:06:22.212Z,12.47
2023-02-22T19:08:50.885Z,10.27
2023-02-22T19:11:23.242Z,10.63
2023-02-22T19:13:54.170Z,10.67
2023-02-22T19:16:26.592Z,14.47
2023-02-22T19:18:57.629Z,14.90
2023-02-22T19:21:27.097Z,12.50
2023-02-22T19:24:00.975Z,10.87
2023-02-22T19:26:29.603Z,11.27
2023-02-22T19:28:58.865Z,10.13
2023-02-22T19:31:29.889Z,10.60
2023-02-22T19:34:04.979Z,10.47
2023-02-22T19:36:32.790Z,11.97
2023-02-22T19:39:03.070Z,11.20
2023-02-22T19:41:31.060Z,11.57
2023-02-22T19:43:58.782Z,9.47
2023-02-22T19:46:25.930Z,12.27
2023-02-22T19:48:55.474Z,10.77
2023-02-22T19:51:25.720Z,13.00
2023-02-22T19:53:53.250Z,11.00
2023-02-22T19:56:27.229Z,12.17
2023-02-22T19:58:56.643Z,9.77
2023-02-22T20:01:26.451Z,9.33
2023-02-22T20:03:59.956Z,10.20
2023-02-22T20:06:30.005Z,10.57
2023-02-22T20:08:57.920Z,11.63
2023-02-22T20:11:25.586Z,13.67
2023-02-22T20:13:55.677Z,10.87
2023-02-22T20:16:23.826Z,11.03
2023-02-22T20:18:51.468Z,14.17
2023-02-22T20:21:27.441Z,11.13
2023-02-22T20:23:57.391Z,12.77
2023-02-22T20:26:26.235Z,12.30
2023-02-22T20:28:53.869Z,12.33
2023-02-22T20:31:21.727Z,13.80
2023-02-22T20:33:56.889Z,9.70
2023-02-22T20:36:25.390Z,13.37
2023-02-22T20:38:57.776Z,11.20
2023-02-22T20:41:31.689Z,10.90
2023-02-22T20:44:00.616Z,13.03
2023-02-22T20:46:31.793Z,10.83
2023-02-22T20:49:01.518Z,12.63
2023-02-22T20:51:29.737Z,10.97
2023-02-22T20:54:00.638Z,12.97
2023-02-22T20:56:30.526Z,11.83
2023-02-22T20:59:02.261Z,11.83
2023-02-22T21:01:30.173Z,12.57
2023-02-22T21:04:02.309Z,11.80
2023-02-22T21:06:29.917Z,13.23
2023-02-22T21:09:00.082Z,10.87
2023-02-22T21:11:30.811Z,9.93
2023-02-22T21:13:58.221Z,11.57
2023-02-22T21:16:28.463Z,11.30
2023-02-22T21:19:01.355Z,12.37
2023-02-22T21:21:29.361Z,10.60
2023-02-22T21:23:58.025Z,11.87
2023-02-22T21:26:27.729Z,12.23
2023-02-22T21:28:57.787Z,12.43
2023-02-22T21:31:25.752Z,11.37
2023-02-22T21:33:56.090Z,10.77
2023-02-22T21:36:26.866Z,11.43
2023-02-22T21:38:59.353Z,13.17
2023-02-22T21:41:31.160Z,10.70
2023-02-22T21:43:59.285Z,10.73
2023-02-22T21:46:29.190Z,10.90
2023-02-22T21:48:58.993Z,10.60
2023-02-22T21:51:32.078Z,10.83
2023-02-22T21:54:06.267Z,10.03
2023-02-22T21:56:38.486Z,11.40
2023-02-22T21:59:11.777Z,10.73
2023-02-22T22:01:50.640Z,12.67
2023-02-22T22:04:20.467Z,10.73
2023-02-22T22:06:51.027Z,11.47
2023-02-22T22:09:19.060Z,11.03
2023-02-22T22:11:49.752Z,10.90
2023-02-22T22:14:18.893Z,10.03
2023-02-22T22:16:47.845Z,13.47
2023-02-22T22:19:15.225Z,13.20
2023-02-22T22:21:42.943Z,9.90
2023-02-22T22:24:10.915Z,12.13
2023-02-22T22:26:38.767Z,10.40
2023-02-22T22:29:06.287Z,10.00
2023-02-22T22:31:33.458Z,14.80
2023-02-22T22:34:00.607Z,10.70
2023-02-22T22:36:28.043Z,8.67
2023-02-22T22:38:57.752Z,10.23
2023-02-22T22:41:28.234Z,8.93
2023-02-22T22:43:56.221Z,12.53
2023-02-22T22:46:23.539Z,11.13
2023-02-22T22:48:50.802Z,12.03
2023-02-22T22:51:21.055Z,10.67
2023-02-22T22:53:49.935Z,9.60
2023-02-22T22:56:29.398Z,12.70
2023-02-22T22:58:59.417Z,11.20
2023-02-22T23:01:34.345Z,11.83
2023-02-22T23:04:03.835Z,11.83
2023-02-22T23:06:33.919Z,10.13
2023-02-22T23:09:13.368Z,9.17
2023-02-22T23:11:51.000Z,12.00
2023-02-22T23:14:22.722Z,11.73
2023-02-22T23:16:52.762Z,9.67
2023-02-22T23:19:20.222Z,10.30
2023-02-22T23:21:49.318Z,9.90
2023-02-22T23:24:19.478Z,12.93
2023-02-22T23:26:49.948Z,9.83
2023-02-22T23:29:19.890Z,9.50
2023-02-22T23:31:50.861Z,10.00
2023-02-22T23:34:19.046Z,8.83
2023-02-22T23:36:46.898Z,10.13
2023-02-22T23:39:16.469Z,10.03
2023-02-22T23:41:43.680Z,9.33
2023-02-22T23:44:14.113Z,10.37
2023-02-22T23:46:41.411Z,9.17
2023-02-22T23:49:10.046Z,9.00
2023-02-22T23:51:39.605Z,10.33
2023-02-22T23:54:12.325Z,11.00
2023-02-22T23:56:40.462Z,12.73
2023-02-22T23:59:12.709Z,10.53
